Date,TemperatureHighF,TemperatureAvgF,TemperatureLowF,DewpointHighF,DewpointAvgF,DewpointLowF,HumidityHigh,HumidityAvg,HumidityLow,PressureMaxIn,PressureMinIn,WindSpeedMaxMPH,WindSpeedAvgMPH,GustSpeedMaxMPH,PrecipitationSumIn
2013-1-1,32,27,20,29,22,14,89,81,71,29.88,29.78,3,2,10,0.00
2013-1-2,23,20,12,16,13,5,79,74,69,30.03,29.86,3,1,9,0.00
2013-1-3,29,18,1,23,12,-2,86,78,58,30.01,29.88,3,1,15,0.00
2013-1-4,34,28,25,22,19,16,81,69,51,30.01,29.88,6,3,20,0.00
2013-1-5,35,27,24,25,21,17,83,76,62,30.16,29.92,3,1,9,0.00
2013-1-6,37,33,31,31,28,24,92,81,71,29.98,29.75,4,1,13,0.01
2013-1-7,35,30,22,30,25,17,92,83,67,30.23,29.99,3,0,9,0.04
2013-1-8,47,25,12,29,19,10,90,78,41,30.14,30.06,2,0,7,0.01
2013-1-9,50,33,18,38,26,16,93,77,56,30.26,29.96,5,1,17,0.02
2013-1-10,42,31,19,32,25,17,92,80,60,30.41,30.12,2,0,7,0.01
2013-1-11,45,40,34,41,33,26,97,78,56,30.12,29.74,3,1,12,0.32
2013-1-12,60,43,34,55,41,33,99,94,79,29.87,29.77,2,0,8,0.01
2013-1-13,68,54,41,58,50,40,99,89,66,29.91,29.63,4,1,12,0.10
2013-1-14,49,33,28,48,27,20,97,79,68,30.45,29.91,10,1,23,0.11
2013-1-15,35,29,26,23,20,18,80,68,55,30.45,30.17,3,0,8,0.00
2013-1-16,36,32,30,31,26,21,85,77,69,30.17,29.91,3,1,12,0.00
2013-1-17,35,32,24,28,24,22,92,73,60,30.21,30.02,6,2,14,0.00
2013-1-18,31,24,17,22,13,6,90,62,50,30.51,30.21,6,3,17,0.00
2013-1-19,52,42,31,28,22,16,58,45,34,30.20,29.80,7,3,20,0.00
2013-1-20,47,30,21,31,18,10,74,59,44,30.18,29.74,10,5,23,0.00
2013-1-21,22,18,12,15,10,3,82,69,55,30.15,29.95,5,2,16,0.00
2013-1-22,13,7,5,7,0,-6,85,72,54,30.28,30.05,7,4,21,0.00
2013-1-23,16,9,3,5,1,-3,82,70,52,30.29,30.11,4,1,15,0.00
2013-1-24,23,11,0,12,3,-5,86,71,42,30.58,30.10,5,1,15,0.00
2013-1-25,17,11,1,11,6,-4,84,80,69,30.55,30.08,3,1,8,0.00
2013-1-26,28,20,14,21,16,10,89,84,69,30.47,30.11,3,1,8,0.00
2013-1-27,34,24,14,21,16,12,91,73,50,30.57,30.37,3,1,9,0.06
2013-1-28,43,35,27,42,33,20,98,93,71,30.37,30.01,3,1,8,0.09
2013-1-30,56,54,33,52,50,29,93,86,79,29.92,29.72,4,3,15,1.16
2013-1-31,51,25,18,45,17,11,87,70,57,30.36,29.74,8,4,22,0.18
2013-2-1,21,16,11,14,9,3,88,74,56,30.80,30.34,6,2,15,0.01
2013-2-2,21,15,10,17,10,3,89,79,68,30.80,30.47,3,1,10,0.00
2013-2-3,24,20,17,19,14,9,91,78,59,30.49,30.35,5,2,12,0.00
2013-2-4,26,20,15,19,14,8,90,78,62,30.55,30.40,4,1,12,0.00
2013-2-5,29,23,19,21,19,16,91,84,72,30.45,30.35,2,0,5,0.01
2013-2-6,34,24,10,25,16,6,91,74,42,30.86,30.45,4,1,10,0.04
2013-2-7,46,27,8,26,17,4,87,70,44,30.86,30.51,5,2,12,0.01
2013-2-8,35,29,20,33,25,15,92,83,73,30.68,30.32,5,2,15,0.14
2013-2-9,35,21,11,18,13,7,85,73,47,30.91,30.68,3,0,9,0.05
2013-2-10,49,28,7,24,14,4,88,62,29,30.88,30.46,4,1,11,0.01
2013-2-11,51,40,34,44,33,23,96,77,53,30.47,29.91,7,3,23,0.09
2013-2-12,34,30,22,26,23,18,88,74,68,30.19,30.02,6,2,15,1.58
2013-2-13,42,30,20,28,24,17,92,79,56,30.08,29.85,3,1,115,0.00
2013-2-14,38,30,18,35,27,16,94,90,82,30.06,29.97,7,1,100,0.05
2013-2-15,38,32,24,32,24,18,80,72,63,30.21,30.02,7,2,100,0.04
2013-2-16,27,22,14,20,13,6,84,68,46,30.21,30.08,4,1,11,0.00
2013-2-17,24,18,14,15,11,6,87,74,58,30.37,30.07,7,2,20,0.00
2013-2-18,38,22,2,23,10,-2,83,64,42,30.41,30.00,5,1,13,0.00
2013-2-19,43,33,19,38,27,14,92,81,59,30.13,29.85,8,3,16,0.37
2013-2-20,21,18,17,14,11,10,83,74,64,30.38,30.13,7,3,14,0.02
2013-2-21,24,18,12,15,13,8,85,78,66,30.58,30.37,5,2,11,0.00
2013-2-22,33,26,12,31,22,9,95,84,67,30.52,30.22,6,3,16,0.00
2013-2-23,38,33,29,34,30,24,97,90,76,30.23,30.10,2,1,7,0.04
2013-2-24,30,29,26,24,22,20,82,76,66,30.35,30.10,5,2,15,0.01
2013-2-25,43,30,23,28,22,20,93,75,46,30.45,30.32,2,1,7,0.00
2013-2-26,40,32,22,33,26,18,94,80,58,30.35,29.83,8,3,19,0.66
2013-2-27,42,36,33,38,34,31,96,91,83,29.88,29.79,6,2,12,0.22
2013-2-28,36,30,0,32,20,-78,95,81,1,30.03,29.82,3,1,9,0.12
2013-3-1,31,28,25,29,24,21,94,87,82,30.21,30.03,0,0,0,0.01
2013-3-2,25,24,23,21,20,19,88,84,80,30.19,30.15,0,0,0,0.00
2013-3-3,27,24,21,22,19,16,91,84,78,30.22,30.14,0,0,0,0.00
2013-3-4,33,24,16,20,17,12,87,74,53,30.32,30.21,5,1,15,0.02
2013-3-5,42,28,14,26,19,11,89,72,45,30.34,29.98,4,1,11,0.01
2013-3-6,41,36,33,28,26,24,82,66,54,30.35,29.98,4,1,10,0.00
2013-3-7,40,34,31,32,30,26,92,84,72,30.52,30.34,4,2,16,0.00
2013-3-8,44,33,24,30,25,20,90,74,45,30.64,30.52,4,2,13,0.00
2013-3-9,55,35,22,33,25,19,94,71,32,30.64,30.40,2,0,9,0.00
2013-3-10,69,51,29,36,31,25,85,50,26,30.41,30.22,4,1,16,0.00
2013-3-11,62,54,47,45,34,30,88,47,32,30.22,29.91,4,2,15,0.31
2013-3-12,46,38,34,44,32,25,91,79,70,30.20,29.98,4,2,13,0.56
2013-3-13,35,30,25,28,24,16,92,78,58,30.30,30.12,7,3,21,0.01
2013-3-14,34,28,21,22,17,13,81,63,52,30.41,30.29,6,4,19,0.01
2013-3-15,41,32,20,32,26,15,88,78,64,30.33,30.07,5,2,15,0.00
2013-3-16,36,36,36,31,31,31,83,83,83,30.23,29.92,2,2,4,0.00
2013-3-17,36,36,36,31,31,31,83,83,83,30.46,30.23,2,2,4,0.00
2013-3-18,36,36,36,31,31,31,83,83,83,30.45,29.92,2,2,4,0.00
2013-3-19,36,36,36,31,31,31,83,83,83,30.14,29.92,2,2,4,0.00
2013-3-20,36,36,36,31,31,31,83,83,83,30.16,30.09,2,2,4,0.00
2013-3-21,36,34,25,31,29,20,89,83,77,30.11,29.91,4,2,9,0.65
2013-3-22,30,26,22,24,22,18,94,84,68,30.10,29.92,5,2,15,0.01
2013-3-23,40,28,19,26,21,16,91,76,55,30.15,30.07,4,1,10,0.01
2013-3-24,41,28,14,25,19,11,90,70,45,30.14,29.66,3,0,12,0.00
2013-3-25,39,34,31,32,29,21,93,82,53,29.86,29.60,4,1,11,0.16
2013-3-26,45,35,29,33,30,26,94,83,58,30.14,29.85,6,2,16,0.03
2013-3-27,41,36,32,31,29,26,93,79,59,30.23,30.12,5,3,12,0.01
2013-3-28,39,34,32,33,31,29,96,88,73,30.35,30.19,4,1,12,0.12
2013-3-29,52,39,29,36,29,23,96,71,39,30.34,30.26,5,1,14,0.01
2013-3-30,55,38,21,32,24,19,92,64,27,30.33,30.12,3,1,10,0.00
2013-3-31,53,41,31,44,34,-100,95,79,45,30.13,29.79,3,1,12,0.09
2013-4-1,46,37,30,42,24,11,96,62,34,30.10,29.75,8,3,27,0.06
2013-4-2,38,30,25,21,16,11,80,57,35,30.25,30.10,7,3,17,0.01
2013-4-3,35,30,20,20,15,12,73,54,41,30.51,30.25,7,3,20,0.00
2013-4-4,56,33,15,20,12,-2,88,53,10,30.47,30.06,3,1,11,0.00
2013-4-5,49,35,23,32,23,17,83,62,38,30.29,30.02,6,2,18,0.00
2013-4-6,57,38,18,24,16,6,89,50,13,30.38,30.09,4,1,15,0.00
2013-4-7,71,57,42,45,34,15,74,42,24,30.14,29.93,7,3,24,0.00
2013-4-8,71,52,30,50,40,28,93,68,42,30.18,29.96,3,1,11,0.04
2013-4-9,75,61,46,55,49,42,87,67,45,30.23,29.97,4,1,11,0.09
2013-4-10,74,60,48,63,54,46,96,82,57,30.05,29.92,5,1,22,0.90
2013-4-11,53,49,47,50,47,43,98,93,86,30.03,29.78,5,1,13,0.72
2013-4-12,60,50,40,57,46,33,99,86,70,29.96,29.60,6,3,16,0.67
2013-4-13,46,41,36,36,34,29,86,74,59,30.11,29.95,5,2,14,0.02
2013-4-14,52,40,28,36,31,26,94,74,52,30.25,30.11,2,0,8,0.01
2013-4-15,72,57,39,49,42,33,80,59,37,30.20,30.11,5,2,17,0.00
2013-4-16,71,59,51,60,51,46,91,76,66,30.31,30.14,7,2,16,0.06
2013-4-17,72,57,45,48,40,33,94,60,25,30.40,30.21,3,0,9,0.01
2013-4-18,83,71,53,63,56,45,82,61,38,30.22,29.85,5,2,18,0.01
2013-4-19,73,58,42,60,47,29,89,66,52,29.95,29.59,6,3,24,0.01
2013-4-20,42,38,28,30,26,20,77,63,49,30.49,29.95,7,4,21,0.01
2013-4-21,53,37,22,28,23,19,91,62,27,30.71,30.50,3,1,8,0.00
2013-4-22,64,48,28,35,28,24,86,52,26,30.59,30.38,4,2,13,0.00
2013-4-23,71,55,39,44,34,25,71,48,27,30.41,30.06,4,2,11,0.00
2013-4-24,59,50,36,55,43,33,94,80,47,30.25,29.82,9,2,18,0.66
2013-4-25,55,42,30,39,34,28,95,74,39,30.44,30.25,6,1,20,0.05
2013-4-26,60,44,30,43,30,25,99,66,27,30.58,30.44,3,1,8,0.04
2013-4-27,75,52,30,41,32,26,93,56,16,30.52,30.29,3,1,10,0.01
2013-4-28,61,52,43,52,45,-100,95,81,52,30.29,30.07,5,2,13,0.30
2013-4-29,62,56,50,57,52,47,97,89,76,30.15,30.06,3,1,11,0.21
2013-4-30,74,61,48,55,52,48,99,76,49,30.31,30.14,4,2,13,0.18
2013-5-1,76,60,49,52,49,46,92,70,41,30.42,29.94,4,1,11,0.00
2013-5-2,80,61,43,47,37,21,86,50,12,30.02,29.87,3,1,11,0.00
2013-5-3,77,61,43,47,40,37,84,50,24,29.93,29.82,5,2,17,0.00
2013-5-4,75,60,47,45,41,32,79,52,22,29.89,29.75,4,2,14,0.00
2013-5-5,78,59,41,47,33,12,94,50,10,29.82,29.68,4,1,16,0.00
2013-5-6,77,60,45,49,41,31,80,51,31,29.77,29.66,3,1,11,0.00
2013-5-7,78,62,46,56,50,44,96,68,34,29.73,29.62,3,1,12,0.00
2013-5-8,70,60,54,58,54,51,96,83,58,29.67,29.59,2,0,8,0.14
2013-5-9,78,62,50,59,52,41,99,76,32,29.65,29.57,4,1,12,0.02
2013-5-10,74,59,48,63,52,-100,95,83,62,29.65,29.44,4,1,19,0.25
2013-5-11,61,50,44,60,47,42,97,89,80,29.50,29.40,3,1,11,0.21
2013-5-12,51,42,34,48,34,-100,94,76,47,29.70,29.45,7,3,21,0.15
2013-5-13,48,40,30,31,28,25,93,65,41,29.83,29.68,5,2,16,0.01
2013-5-14,52,41,27,40,33,24,94,73,44,29.82,29.56,3,1,10,0.01
2013-5-15,83,62,44,64,49,38,92,68,30,29.56,29.37,6,2,19,0.20
2013-5-16,80,56,47,51,25,-100,96,62,20,29.66,29.44,4,1,15,0.02
2013-5-17,80,60,42,50,40,-100,96,61,25,29.81,29.66,3,1,9,0.00
2013-5-18,53,51,50,46,46,45,86,82,75,29.81,29.80,0,0,2,0.00